METAR Data
IDs: Format: Raw Decoded Include TAF

Data at: 1352 UTC 07 Jul 2020

KLQK 071335Z AUTO 06004KT 5SM -RA SCT008 BKN019 OVC070 22/22 A3005 RMK AO2 T02200220
KLQK 071315Z AUTO 05005KT 5SM RA SCT016 BKN050 OVC070 22/22 A3005 RMK AO2 T02180218
KLQK 071255Z AUTO 05005KT 4SM RA SCT008 BKN014 OVC032 22/22 A3005 RMK AO2 T02160216
KLQK 071235Z AUTO 05004KT 2 1/2SM +RA SCT006 BKN028 OVC032 22/22 A3005 RMK AO2 T02160216
KLQK 071215Z AUTO 06003KT 2SM RA SCT008 BKN012 OVC027 22/22 A3005 RMK AO2 T02160216
KLQK 071155Z AUTO 10003KT 10SM RA SCT008 OVC012 22/22 A3004 RMK AO2 T02170217 10223 20217
KLQK 071135Z AUTO 06004KT 10SM -DZ BKN007 OVC015 22/22 A3003 RMK AO2 T02170217
KLQK 071115Z AUTO 06005KT 7SM DZ SCT007 OVC017 22/22 A3003 RMK AO2 T02170217
KLQK 071055Z AUTO 07005KT 10SM OVC019 22/22 A3003 RMK AO2 T02170217
KLQK 071035Z AUTO 07004KT 10SM DZ SCT009 SCT019 OVC028 22/22 A3003 RMK AO2 T02170217
KLQK 071015Z AUTO 05006KT 7SM +DZ SCT008 BKN021 OVC028 22/22 A3003 RMK AO2 T02200220
KLQK 070955Z AUTO 05004KT 10SM SCT008 SCT021 OVC027 22/22 A3003 RMK AO2 T02220222
KLQK 070935Z AUTO 05006KT 10SM SCT019 BKN027 OVC033 22/22 A3003 RMK AO2 T02210221
KLQK 070915Z AUTO 07004KT 10SM SCT019 OVC032 22/22 A3002 RMK AO2 T02200220
KLQK 070855Z AUTO 06004KT 10SM OVC019 22/22 A3002 RMK AO2 T02200220
KLQK 070835Z AUTO 07003KT 10SM OVC021 22/22 A3003 RMK AO2 T02200220
KLQK 070815Z AUTO 07004KT 10SM OVC021 22/22 A3003 RMK AO2 T02200220
KLQK 070755Z AUTO 08004KT 10SM OVC021 22/22 A3003 RMK AO2 T02200220
KLQK 070735Z AUTO 06004KT 10SM OVC021 22/22 A3003 RMK AO2 T02210221
KLQK 070715Z AUTO 07004KT 10SM OVC023 22/22 A3004 RMK AO2 T02200220
KLQK 070655Z AUTO 06004KT 10SM OVC027 22/22 A3005 RMK AO2 T02200220
KLQK 070635Z AUTO 00000KT 10SM BKN029 OVC035 22/22 A3005 RMK AO2 T02210221
KLQK 070615Z AUTO 05005KT 10SM SCT031 BKN042 22/22 A3005 RMK AO2 T02220222
KLQK 070555Z AUTO 04004KT 10SM BKN038 22/22 A3006 RMK AO2 T02210221 10222 20213 402900195
KLQK 070535Z AUTO 05004KT 10SM OVC036 22/22 A3006 RMK AO2 T02220222
KLQK 070515Z AUTO 02005KT 10SM OVC033 22/22 A3006 RMK AO2 T02220222
KLQK 070455Z AUTO 04005KT 10SM SCT022 OVC029 22/22 A3006 RMK AO2 T02200220
KLQK 070435Z AUTO 03003KT 10SM SCT020 SCT029 BKN065 22/22 A3006 RMK AO2 T02150215
KLQK 070415Z AUTO 00000KT 10SM BKN018 22/22 A3006 RMK AO2 T02150215
KLQK 070355Z AUTO 00000KT 10SM BKN018 BKN034 OVC070 22/22 A3006 RMK AO2 T02160216
KLQK 070335Z AUTO 04003KT 10SM SCT020 SCT030 BKN070 22/22 A3007 RMK AO2 T02200220
KLQK 070315Z AUTO 01003KT 10SM SCT020 SCT026 BKN036 22/22 A3007 RMK AO2 T02150215
KLQK 070255Z AUTO 06003KT 10SM BKN026 OVC031 22/22 A3008 RMK AO2 T02170217
KLQK 070235Z AUTO 00000KT 10SM BKN028 22/22 A3007 RMK AO2 T02170217
KLQK 070215Z AUTO 05003KT 10SM SCT060 22/22 A3007 RMK AO2 T02160216
KLQK 070155Z AUTO 00000KT 10SM SCT005 SCT050 BKN060 21/21 A3007 RMK AO2 T02130213
KLQK 070135Z AUTO 00000KT 10SM BKN007 BKN015 OVC047 22/22 A3007 RMK AO2 T02150215
KLQK 070115Z AUTO 00000KT 10SM SCT007 SCT015 BKN047 22/22 A3007 RMK AO2 T02160216
KLQK 070055Z AUTO 00000KT 10SM SCT006 SCT029 SCT034 22/22 A3006 RMK AO2 T02150215
KLQK 070035Z AUTO 17005KT 10SM BKN008 OVC065 22/22 A3007 RMK AO2 T02170217
KLQK 070015Z AUTO 15004KT 10SM SCT065 22/22 A3006 RMK AO2 T02190219
KLQK 062355Z AUTO 17005KT 10SM CLR 22/22 A3006 RMK AO2 T02220222 10290 20222
KLQK 062335Z AUTO 16005KT 10SM SCT080 BKN110 23/23 A3006 RMK AO2 T02260226
KLQK 062315Z AUTO 14006KT 10SM SCT021 OVC100 23/23 A3005 RMK AO2 T02320231
KLQK 062255Z AUTO 13013G20KT 10SM SCT020 OVC090 25/25 A3005 RMK AO2 T02520248
KLQK 062235Z AUTO 09006KT 10SM OVC090 26/25 A3005 RMK AO2 T02560247
KLQK 062215Z AUTO 09006KT 10SM OVC090 26/25 A3004 RMK AO2 T02550251
KLQK 062155Z AUTO 07004KT 10SM OVC090 25/25 A3004 RMK AO2 T02520252
KLQK 062135Z AUTO 08004KT 10SM OVC080 25/25 A3004 RMK AO2 T02500250
KLQK 062115Z AUTO 06004KT 10SM BKN070 BKN090 BKN110 25/25 A3005 RMK AO2 T02510251
KLQK 062055Z AUTO 08003KT 10SM SCT032 SCT043 BKN070 25/25 A3004 RMK AO2 T02490249
KLQK 062035Z AUTO 06003KT 10SM -RA SCT046 BKN060 BKN120 24/24 A3005 RMK AO2 T02390239
KLQK 062015Z AUTO 00000KT 7SM RA SCT008 BKN043 OVC060 23/23 A3005 RMK AO2 T02320232
KLQK 061955Z AUTO 12007G14KT 1 1/2SM +RA SCT011 BKN018 OVC026 24/24 A3006 RMK AO2 T02370237
KLQK 061935Z AUTO 09006KT 10SM SCT026 BKN035 BKN043 27/22 A3005 RMK AO2 T02710224
KLQK 061915Z AUTO 06006KT 10SM SCT021 SCT032 28/23 A3004 RMK AO2 T02800231
KLQK 061855Z AUTO 10006KT 10SM SCT020 SCT026 SCT032 28/23 A3005 RMK AO2 T02800228
KLQK 061835Z AUTO 05009KT 10SM SCT018 SCT026 29/23 A3005 RMK AO2 T02880234
KLQK 061815Z AUTO 05007KT 10SM SCT085 28/24 A3005 RMK AO2 T02790244
KLQK 061755Z AUTO 10006KT 10SM SCT029 SCT040 BKN065 26/26 A3007 RMK AO2 T02590257 10281 20224
KLQK 061735Z AUTO 12006KT 10SM -RA SCT030 BKN036 OVC065 23/23 A3008 RMK AO2 T02340234
KLQK 061715Z AUTO 15008KT 7SM -RA BKN028 OVC034 24/23 A3009 RMK AO2 T02390234
KLQK 061655Z AUTO 09003KT 10SM BKN036 OVC047 27/21 A3009 RMK AO2 T02660210
KLQK 061635Z AUTO 11008KT 10SM BKN036 OVC047 28/21 A3009 RMK AO2 T02760208
KLQK 061615Z AUTO 07007KT 10SM BKN034 BKN041 OVC060 28/21 A3009 RMK AO2 T02790212
KLQK 061555Z AUTO 08005KT 10SM SCT029 SCT034 OVC045 27/21 A3009 RMK AO2 T02710212
KLQK 061535Z AUTO 08005KT 10SM BKN029 BKN039 OVC047 27/21 A3009 RMK AO2 T02730212
KLQK 061515Z AUTO 08005KT 10SM BKN027 BKN040 OVC047 27/22 A3009 RMK AO2 T02720215
KLQK 061455Z AUTO 08005KT 10SM BKN025 BKN032 OVC042 27/21 A3009 RMK AO2 T02670214
KLQK 061435Z AUTO 08006KT 10SM SCT022 BKN028 BKN039 27/22 A3009 RMK AO2 T02670218
KLQK 061415Z AUTO 05004KT 10SM BKN022 BKN028 BKN037 27/22 A3008 RMK AO2 T02730223
KLQK 061355Z AUTO 11004KT 10SM SCT022 SCT028 26/22 A3008 RMK AO2 T02580222
KLQK 061335Z AUTO 13005KT 10SM CLR 26/23 A3008 RMK AO2 T02630225
KLQK 061315Z AUTO 06004KT 10SM CLR 26/23 A3007 RMK AO2 T02550226
KLQK 061255Z AUTO 07003KT 10SM SCT011 SCT035 25/23 A3007 RMK AO2 T02460225
KLQK 061235Z AUTO 10003KT 10SM CLR 24/22 A3007 RMK AO2 T02410223
KLQK 061215Z AUTO 00000KT 10SM SCT011 23/22 A3007 RMK AO2 T02310220
KLQK 061155Z AUTO 06004KT 10SM CLR 22/22 A3005 RMK AO2 T02230218 10227 20195
KLQK 061135Z AUTO 05003KT 10SM CLR 21/21 A3005 RMK AO2 T02110211
KLQK 061115Z AUTO 04004KT 10SM CLR 21/21 A3004 RMK AO2 T02130213
KLQK 061055Z AUTO 07004KT 10SM CLR 21/21 A3005 RMK AO2 T02050205
KLQK 061035Z AUTO 07005KT 10SM BKN043 22/22 A3004 RMK AO2 T02150215
KLQK 061015Z AUTO 07005KT 10SM BKN043 21/21 A3004 RMK AO2 T02140214
KLQK 060955Z AUTO 08004KT 10SM SCT041 SCT049 21/21 A3003 RMK AO2 T02120212
KLQK 060935Z AUTO 06005KT 10SM BKN040 BKN049 22/22 A3003 RMK AO2 T02170215
KLQK 060915Z AUTO 09004KT 10SM BKN043 OVC050 21/21 A3002 RMK AO2 T02100210
KLQK 060855Z AUTO 08003KT 10SM OVC043 21/21 A3001 RMK AO2 T02120212
KLQK 060835Z AUTO 00000KT 10SM OVC043 20/20 A3001 RMK AO2 T02040204
KLQK 060815Z AUTO 00000KT 10SM OVC043 21/21 A3001 RMK AO2 T02080208
KLQK 060755Z AUTO 09003KT 10SM BKN043 20/20 A3001 RMK AO2 T02030203
KLQK 060735Z AUTO 08004KT 10SM CLR 20/20 A3001 RMK AO2 T02000200
KLQK 060715Z AUTO 07004KT 10SM CLR 21/21 A3001 RMK AO2 T02060206
KLQK 060655Z AUTO 08004KT 10SM CLR 20/20 A3002 RMK AO2 T01990199
KLQK 060635Z AUTO 06003KT 10SM CLR 21/21 A3003 RMK AO2 T02120210
KLQK 060615Z AUTO 00000KT 10SM CLR 21/21 A3003 RMK AO2 T02120212
KLQK 060555Z AUTO 11004KT 10SM CLR 23/21 A3003 RMK AO2 T02290205 10290 20225 403330200
KLQK 060535Z AUTO 13005KT 10SM CLR 23/20 A3003 RMK AO2 T02320204
KLQK 060515Z AUTO 13005KT 10SM CLR 23/21 A3003 RMK AO2 T02250207
KLQK 060455Z AUTO 12005KT 10SM CLR 23/20 A3003 RMK AO2 T02320204
KLQK 060435Z AUTO 11006KT 10SM CLR 24/20 A3003 RMK AO2 T02380201
KLQK 060415Z AUTO 11006KT 10SM CLR 24/21 A3003 RMK AO2 T02370205
KLQK 060355Z AUTO 11006KT 10SM CLR 24/20 A3002 RMK AO2 T02440201
KLQK 060335Z AUTO 12006KT 10SM CLR 23/22 A3002 RMK AO2 T02290216
KLQK 060315Z AUTO 11005KT 10SM CLR 25/21 A3002 RMK AO2 T02450209
KLQK 060255Z AUTO 12004KT 10SM CLR 25/20 A3001 RMK AO2 T02480204
KLQK 060235Z AUTO 14005KT 10SM CLR 25/20 A3001 RMK AO2 T02540203
KLQK 060215Z AUTO 13005KT 10SM CLR 26/20 A3000 RMK AO2 T02590201
KLQK 060155Z AUTO 14005KT 10SM CLR 26/21 A3000 RMK AO2 T02550209